Time,TemperatureF,DewpointF,PressureIn,WindDirection,WindDirectionDegrees,WindSpeedMPH,WindSpeedGustMPH,Humidity,HourlyPrecipIn,Conditions,Clouds,dailyrainin,SoftwareType,DateUTC
2013-09-09 00:00:00,72.6,70.5,29.89,SW,218,0.0,0.0,93,0.00,,,0.00,Wunderground v.1.15,2013-09-09 05:00:00,
2013-09-09 00:06:00,72.6,70.8,29.89,SW,218,0.0,0.0,94,0.00,,,0.00,Wunderground v.1.15,2013-09-09 05:06:00,
2013-09-09 00:12:00,72.5,70.7,29.89,SW,218,0.0,0.0,94,0.00,,,0.00,Wunderground v.1.15,2013-09-09 05:12:00,
2013-09-09 00:17:00,72.4,70.6,29.89,SW,218,0.0,0.0,94,0.00,,,0.00,Wunderground v.1.15,2013-09-09 05:17:00,
2013-09-09 00:23:00,72.2,70.4,29.89,SW,218,0.0,0.0,94,0.00,,,0.00,Wunderground v.1.15,2013-09-09 05:23:00,
2013-09-09 00:29:00,72.3,70.8,29.89,SW,218,0.0,0.0,95,0.00,,,0.00,Wunderground v.1.15,2013-09-09 05:29:00,
2013-09-09 00:35:00,72.2,70.4,29.89,SW,218,0.0,0.0,94,0.00,,,0.00,Wunderground v.1.15,2013-09-09 05:35:00,
2013-09-09 00:40:00,72.0,70.2,29.89,SW,218,0.0,0.0,94,0.00,,,0.00,Wunderground v.1.15,2013-09-09 05:40:00,
2013-09-09 00:46:00,71.7,69.9,29.89,SW,218,0.0,0.0,94,0.00,,,0.00,Wunderground v.1.15,2013-09-09 05:46:00,
2013-09-09 00:52:00,71.8,70.3,29.89,SW,218,0.0,0.0,95,0.00,,,0.00,Wunderground v.1.15,2013-09-09 05:52:00,
2013-09-09 00:58:00,71.9,70.4,29.89,SW,218,0.0,0.0,95,0.00,,,0.00,Wunderground v.1.15,2013-09-09 05:58:00,
2013-09-09 01:04:00,71.7,69.9,29.89,SW,218,0.0,0.0,94,0.00,,,0.00,Wunderground v.1.15,2013-09-09 06:04:00,
2013-09-09 01:10:00,71.5,69.7,29.89,SW,218,0.0,0.0,94,0.00,,,0.00,Wunderground v.1.15,2013-09-09 06:10:00,
2013-09-09 01:16:00,71.5,70.0,29.89,SW,218,0.0,0.0,95,0.00,,,0.00,Wunderground v.1.15,2013-09-09 06:16:00,
2013-09-09 01:22:00,71.4,69.9,29.89,SW,218,0.0,0.0,95,0.00,,,0.00,Wunderground v.1.15,2013-09-09 06:22:00,
2013-09-09 01:27:00,71.2,69.4,29.89,SW,218,0.0,0.0,94,0.00,,,0.00,Wunderground v.1.15,2013-09-09 06:27:00,
2013-09-09 01:33:00,70.9,69.1,29.88,SW,218,0.0,0.0,94,0.00,,,0.00,Wunderground v.1.15,2013-09-09 06:33:00,
2013-09-09 01:39:00,70.6,69.1,29.89,SW,218,0.0,0.0,95,0.00,,,0.00,Wunderground v.1.15,2013-09-09 06:39:00,
2013-09-09 01:45:00,70.3,68.8,29.89,SW,218,0.0,0.0,95,0.00,,,0.00,Wunderground v.1.15,2013-09-09 06:45:00,
2013-09-09 01:51:00,70.2,68.7,29.89,SW,218,0.0,0.0,95,0.00,,,0.00,Wunderground v.1.15,2013-09-09 06:51:00,
2013-09-09 01:57:00,70.1,68.6,29.89,SW,218,0.0,0.0,95,0.00,,,0.00,Wunderground v.1.15,2013-09-09 06:57:00,
2013-09-09 02:03:00,70.0,68.8,29.89,SW,218,0.0,0.0,96,0.00,,,0.00,Wunderground v.1.15,2013-09-09 07:03:00,
2013-09-09 02:08:00,70.0,68.8,29.89,SW,218,0.0,0.0,96,0.00,,,0.00,Wunderground v.1.15,2013-09-09 07:08:00,
2013-09-09 02:14:00,70.0,68.8,29.89,SW,218,0.0,0.0,96,0.00,,,0.00,Wunderground v.1.15,2013-09-09 07:14:00,
2013-09-09 02:20:00,70.0,68.8,29.89,SW,218,0.0,0.0,96,0.00,,,0.00,Wunderground v.1.15,2013-09-09 07:20:00,
2013-09-09 02:26:00,69.9,68.7,29.89,SW,218,0.0,0.0,96,0.00,,,0.00,Wunderground v.1.15,2013-09-09 07:26:00,
2013-09-09 02:31:00,69.8,68.6,29.89,SW,218,0.0,0.0,96,0.00,,,0.00,Wunderground v.1.15,2013-09-09 07:31:00,
2013-09-09 02:37:00,69.6,68.4,29.89,SW,218,0.0,0.0,96,0.00,,,0.00,Wunderground v.1.15,2013-09-09 07:37:00,
2013-09-09 02:43:00,69.6,68.4,29.89,SW,218,0.0,0.0,96,0.00,,,0.00,Wunderground v.1.15,2013-09-09 07:43:00,
2013-09-09 02:49:00,69.2,68.0,29.89,SW,218,0.0,0.0,96,0.00,,,0.00,Wunderground v.1.15,2013-09-09 07:49:00,
2013-09-09 02:55:00,69.1,67.9,29.89,SW,218,0.0,0.0,96,0.00,,,0.00,Wunderground v.1.15,2013-09-09 07:55:00,
2013-09-09 03:00:00,69.2,68.0,29.89,SW,218,0.0,0.0,96,0.00,,,0.00,Wunderground v.1.15,2013-09-09 08:00:00,
2013-09-09 03:06:00,69.2,68.0,29.89,SW,218,0.0,0.0,96,0.00,,,0.00,Wunderground v.1.15,2013-09-09 08:06:00,
2013-09-09 03:11:00,69.0,67.8,29.89,SW,218,0.0,0.0,96,0.00,,,0.00,Wunderground v.1.15,2013-09-09 08:11:00,
2013-09-09 03:17:00,68.6,67.4,29.89,SW,218,0.0,0.0,96,0.00,,,0.00,Wunderground v.1.15,2013-09-09 08:17:00,
2013-09-09 03:23:00,68.7,67.5,29.89,SW,218,0.0,0.0,96,0.00,,,0.00,Wunderground v.1.15,2013-09-09 08:23:00,
2013-09-09 03:29:00,68.8,67.9,29.89,SW,218,0.0,0.0,97,0.00,,,0.00,Wunderground v.1.15,2013-09-09 08:29:00,
2013-09-09 03:34:00,68.8,67.9,29.89,SW,218,0.0,0.0,97,0.00,,,0.00,Wunderground v.1.15,2013-09-09 08:34:00,
2013-09-09 03:40:00,68.6,67.4,29.89,SW,218,0.0,0.0,96,0.00,,,0.00,Wunderground v.1.15,2013-09-09 08:40:00,
2013-09-09 03:46:00,68.8,67.9,29.89,SW,218,0.0,0.0,97,0.00,,,0.00,Wunderground v.1.15,2013-09-09 08:46:00,
2013-09-09 03:52:00,68.6,67.4,29.89,SW,218,0.0,0.0,96,0.00,,,0.00,Wunderground v.1.15,2013-09-09 08:52:00,
2013-09-09 03:57:00,68.5,67.3,29.89,SW,218,0.0,0.0,96,0.00,,,0.00,Wunderground v.1.15,2013-09-09 08:57:00,
2013-09-09 04:03:00,68.6,67.7,29.89,SW,218,0.0,0.0,97,0.00,,,0.00,Wunderground v.1.15,2013-09-09 09:03:00,
2013-09-09 04:09:00,68.5,67.6,29.90,SW,218,0.0,0.0,97,0.00,,,0.00,Wunderground v.1.15,2013-09-09 09:09:00,
2013-09-09 04:14:00,68.2,67.0,29.90,SW,218,0.0,0.0,96,0.00,,,0.00,Wunderground v.1.15,2013-09-09 09:14:00,
2013-09-09 04:20:00,68.0,66.8,29.90,SW,218,0.0,0.0,96,0.00,,,0.00,Wunderground v.1.15,2013-09-09 09:20:00,
2013-09-09 04:26:00,67.9,67.0,29.90,SW,218,0.0,0.0,97,0.00,,,0.00,Wunderground v.1.15,2013-09-09 09:26:00,
2013-09-09 04:32:00,68.0,67.1,29.90,SW,218,0.0,0.0,97,0.00,,,0.00,Wunderground v.1.15,2013-09-09 09:32:00,
2013-09-09 04:37:00,68.0,67.1,29.90,SW,218,0.0,0.0,97,0.00,,,0.00,Wunderground v.1.15,2013-09-09 09:37:00,
2013-09-09 04:43:00,67.9,67.0,29.90,SW,218,0.0,0.0,97,0.00,,,0.00,Wunderground v.1.15,2013-09-09 09:43:00,
2013-09-09 04:49:00,67.9,67.0,29.90,SW,218,0.0,0.0,97,0.00,,,0.00,Wunderground v.1.15,2013-09-09 09:49:00,
2013-09-09 04:54:00,67.9,67.0,29.90,SW,218,0.0,0.0,97,0.00,,,0.00,Wunderground v.1.15,2013-09-09 09:54:00,
2013-09-09 05:00:00,67.8,66.9,29.90,SW,218,0.0,0.0,97,0.00,,,0.00,Wunderground v.1.15,2013-09-09 10:00:00,
2013-09-09 05:06:00,67.8,66.9,29.91,SW,218,0.0,0.0,97,0.00,,,0.00,Wunderground v.1.15,2013-09-09 10:06:00,
2013-09-09 05:12:00,67.6,66.7,29.91,SW,218,0.0,0.0,97,0.00,,,0.00,Wunderground v.1.15,2013-09-09 10:12:00,
2013-09-09 05:18:00,67.3,66.4,29.91,SW,218,0.0,0.0,97,0.00,,,0.00,Wunderground v.1.15,2013-09-09 10:18:00,
2013-09-09 05:24:00,67.2,66.3,29.91,SW,218,0.0,0.0,97,0.00,,,0.00,Wunderground v.1.15,2013-09-09 10:24:00,
2013-09-09 05:29:00,67.1,66.2,29.91,SW,218,0.0,0.0,97,0.00,,,0.00,Wunderground v.1.15,2013-09-09 10:29:00,
2013-09-09 05:35:00,67.1,66.2,29.91,SW,218,0.0,0.0,97,0.00,,,0.00,Wunderground v.1.15,2013-09-09 10:35:00,
2013-09-09 05:41:00,67.0,66.1,29.91,SW,218,0.0,0.0,97,0.00,,,0.00,Wunderground v.1.15,2013-09-09 10:41:00,
2013-09-09 05:47:00,66.9,66.0,29.91,SW,218,0.0,0.0,97,0.00,,,0.00,Wunderground v.1.15,2013-09-09 10:47:00,
2013-09-09 05:52:00,66.9,66.0,29.91,SW,218,0.0,0.0,97,0.00,,,0.00,Wunderground v.1.15,2013-09-09 10:52:00,
2013-09-09 05:58:00,67.0,66.1,29.91,SW,218,0.0,0.0,97,0.00,,,0.00,Wunderground v.1.15,2013-09-09 10:58:00,
2013-09-09 06:04:00,67.0,66.1,29.91,SW,218,0.0,0.0,97,0.00,,,0.00,Wunderground v.1.15,2013-09-09 11:04:00,
2013-09-09 06:10:00,66.9,66.0,29.91,SW,218,0.0,0.0,97,0.00,,,0.00,Wunderground v.1.15,2013-09-09 11:10:00,
2013-09-09 06:16:00,66.7,65.8,29.91,SW,218,0.0,0.0,97,0.00,,,0.00,Wunderground v.1.15,2013-09-09 11:16:00,
2013-09-09 06:21:00,66.7,65.8,29.91,SW,218,0.0,0.0,97,0.00,,,0.00,Wunderground v.1.15,2013-09-09 11:21:00,
2013-09-09 06:27:00,66.5,65.6,29.92,SW,218,0.0,0.0,97,0.00,,,0.00,Wunderground v.1.15,2013-09-09 11:27:00,
2013-09-09 06:33:00,66.5,65.6,29.92,SW,218,0.0,0.0,97,0.00,,,0.00,Wunderground v.1.15,2013-09-09 11:33:00,
2013-09-09 06:39:00,66.5,65.6,29.92,SW,218,0.0,0.0,97,0.00,,,0.00,Wunderground v.1.15,2013-09-09 11:39:00,
2013-09-09 06:45:00,66.4,65.5,29.92,SW,218,0.0,0.0,97,0.00,,,0.00,Wunderground v.1.15,2013-09-09 11:45:00,
2013-09-09 06:51:00,66.4,65.5,29.91,SW,217,0.0,0.0,97,0.00,,,0.00,Wunderground v.1.15,2013-09-09 11:51:00,
2013-09-09 06:57:00,66.5,65.6,29.92,SW,217,0.0,0.0,97,0.00,,,0.00,Wunderground v.1.15,2013-09-09 11:57:00,
2013-09-09 07:02:00,66.5,65.6,29.92,SW,218,0.0,0.0,97,0.00,,,0.00,Wunderground v.1.15,2013-09-09 12:02:00,
2013-09-09 07:08:00,66.6,65.7,29.92,SW,218,0.0,0.0,97,0.00,,,0.00,Wunderground v.1.15,2013-09-09 12:08:00,
2013-09-09 07:14:00,66.4,65.5,29.93,SW,217,0.0,0.0,97,0.00,,,0.00,Wunderground v.1.15,2013-09-09 12:14:00,
2013-09-09 07:20:00,66.3,65.4,29.93,SW,218,0.0,0.0,97,0.00,,,0.00,Wunderground v.1.15,2013-09-09 12:20:00,
2013-09-09 07:26:00,66.3,65.4,29.93,SW,218,0.0,0.0,97,0.00,,,0.00,Wunderground v.1.15,2013-09-09 12:26:00,
2013-09-09 07:32:00,66.3,65.4,29.93,SW,218,0.0,0.0,97,0.00,,,0.00,Wunderground v.1.15,2013-09-09 12:32:00,
2013-09-09 07:38:00,67.0,66.1,29.93,SW,218,0.0,0.0,97,0.00,,,0.00,Wunderground v.1.15,2013-09-09 12:38:00,
2013-09-09 07:43:00,68.0,67.1,29.93,SW,218,0.0,0.0,97,0.00,,,0.00,Wunderground v.1.15,2013-09-09 12:43:00,
2013-09-09 07:49:00,68.0,67.1,29.94,West,262,0.0,0.0,97,0.00,,,0.00,Wunderground v.1.15,2013-09-09 12:49:00,
2013-09-09 07:55:00,68.0,66.8,29.94,West,262,0.0,0.0,96,0.00,,,0.00,Wunderground v.1.15,2013-09-09 12:55:00,
2013-09-09 08:00:00,68.7,67.8,29.94,West,262,0.0,0.0,97,0.00,,,0.00,Wunderground v.1.15,2013-09-09 13:00:00,
2013-09-09 08:05:00,69.6,68.7,29.94,West,261,0.0,1.0,97,0.00,,,0.00,Wunderground v.1.15,2013-09-09 13:05:00,
2013-09-09 08:11:00,70.1,68.9,29.94,West,262,0.0,0.0,96,0.00,,,0.00,Wunderground v.1.15,2013-09-09 13:11:00,
2013-09-09 08:17:00,71.0,69.8,29.94,West,261,0.0,0.0,96,0.00,,,0.00,Wunderground v.1.15,2013-09-09 13:17:00,
2013-09-09 08:23:00,71.7,69.6,29.94,West,262,0.0,0.0,93,0.00,,,0.00,Wunderground v.1.15,2013-09-09 13:23:00,
2013-09-09 08:28:00,71.4,69.0,29.94,West,262,0.0,1.0,92,0.00,,,0.00,Wunderground v.1.15,2013-09-09 13:28:00,
2013-09-09 08:34:00,71.6,69.2,29.94,West,262,0.0,0.0,92,0.00,,,0.00,Wunderground v.1.15,2013-09-09 13:34:00,
2013-09-09 08:40:00,72.1,69.3,29.95,West,262,0.0,0.0,91,0.00,,,0.00,Wunderground v.1.15,2013-09-09 13:40:00,
2013-09-09 08:46:00,72.7,69.6,29.95,West,262,0.0,0.0,90,0.00,,,0.00,Wunderground v.1.15,2013-09-09 13:46:00,
2013-09-09 08:52:00,73.5,70.1,29.95,West,262,0.0,0.0,89,0.00,,,0.00,Wunderground v.1.15,2013-09-09 13:52:00,
2013-09-09 08:58:00,74.5,70.4,29.95,West,262,0.0,0.0,87,0.00,,,0.00,Wunderground v.1.15,2013-09-09 13:58:00,
2013-09-09 09:04:00,75.5,71.0,29.96,West,262,0.0,0.0,86,0.00,,,0.00,Wunderground v.1.15,2013-09-09 14:04:00,
2013-09-09 09:09:00,76.3,71.1,29.96,ENE,58,0.0,0.0,84,0.00,,,0.00,Wunderground v.1.15,2013-09-09 14:09:00,
2013-09-09 09:15:00,76.4,70.9,29.96,ENE,58,0.0,0.0,83,0.00,,,0.00,Wunderground v.1.15,2013-09-09 14:15:00,
2013-09-09 09:21:00,77.4,71.5,29.96,East,79,0.0,0.0,82,0.00,,,0.00,Wunderground v.1.15,2013-09-09 14:21:00,
2013-09-09 09:27:00,78.3,71.6,29.96,NE,48,0.0,1.0,80,0.00,,,0.00,Wunderground v.1.15,2013-09-09 14:27:00,
2013-09-09 09:32:00,79.0,71.6,29.96,SW,236,0.0,1.0,78,0.00,,,0.00,Wunderground v.1.15,2013-09-09 14:32:00,
2013-09-09 09:38:00,79.8,71.2,29.96,West,266,1.0,2.0,75,0.00,,,0.00,Wunderground v.1.15,2013-09-09 14:38:00,
2013-09-09 09:44:00,80.3,70.9,29.97,West,273,1.0,1.0,73,0.00,,,0.00,Wunderground v.1.15,2013-09-09 14:44:00,
2013-09-09 09:50:00,81.3,71.0,29.96,SW,235,1.0,1.0,71,0.00,,,0.00,Wunderground v.1.15,2013-09-09 14:50:00,
2013-09-09 09:56:00,82.0,70.4,29.96,SW,231,1.0,2.0,68,0.00,,,0.00,Wunderground v.1.15,2013-09-09 14:56:00,
2013-09-09 10:02:00,82.6,70.1,29.96,SSW,208,2.0,4.0,66,0.00,,,0.00,Wunderground v.1.15,2013-09-09 15:02:00,
2013-09-09 10:08:00,83.2,70.2,29.96,SW,232,2.0,4.0,65,0.00,,,0.00,Wunderground v.1.15,2013-09-09 15:08:00,
2013-09-09 10:13:00,83.7,69.8,29.96,West,262,1.0,2.0,63,0.00,,,0.00,Wunderground v.1.15,2013-09-09 15:13:00,
2013-09-09 10:19:00,84.1,69.7,29.96,WNW,283,2.0,3.0,62,0.00,,,0.00,Wunderground v.1.15,2013-09-09 15:19:00,
2013-09-09 10:25:00,84.5,70.0,29.96,SW,233,2.0,2.0,62,0.00,,,0.00,Wunderground v.1.15,2013-09-09 15:25:00,
2013-09-09 10:31:00,85.1,69.7,29.97,SW,225,2.0,2.0,60,0.00,,,0.00,Wunderground v.1.15,2013-09-09 15:31:00,
2013-09-09 10:36:00,85.4,69.9,29.97,SW,217,2.0,3.0,60,0.00,,,0.00,Wunderground v.1.15,2013-09-09 15:36:00,
2013-09-09 10:42:00,85.8,70.3,29.97,West,259,2.0,4.0,60,0.00,,,0.00,Wunderground v.1.15,2013-09-09 15:42:00,
2013-09-09 10:48:00,86.1,70.1,29.96,WSW,249,2.0,4.0,59,0.00,,,0.00,Wunderground v.1.15,2013-09-09 15:48:00,
2013-09-09 10:54:00,86.6,70.6,29.96,SW,215,2.0,2.0,59,0.00,,,0.00,Wunderground v.1.15,2013-09-09 15:54:00,
2013-09-09 11:00:00,87.3,70.7,29.96,SSW,207,1.0,1.0,58,0.00,,,0.00,Wunderground v.1.15,2013-09-09 16:00:00,
2013-09-09 11:06:00,87.9,70.2,29.96,SW,221,1.0,2.0,56,0.00,,,0.00,Wunderground v.1.15,2013-09-09 16:06:00,
2013-09-09 11:12:00,88.5,69.7,29.96,SW,232,1.0,2.0,54,0.00,,,0.00,Wunderground v.1.15,2013-09-09 16:12:00,
2013-09-09 11:17:00,88.7,71.0,29.96,WNW,303,1.0,2.0,56,0.00,,,0.00,Wunderground v.1.15,2013-09-09 16:17:00,
2013-09-09 11:23:00,89.1,70.3,29.96,ESE,122,1.0,1.0,54,0.00,,,0.00,Wunderground v.1.15,2013-09-09 16:23:00,
2013-09-09 11:29:00,89.9,70.5,29.96,WSW,242,1.0,2.0,53,0.00,,,0.00,Wunderground v.1.15,2013-09-09 16:29:00,
2013-09-09 11:35:00,90.1,71.2,29.95,ESE,104,1.0,5.0,54,0.00,,,0.00,Wunderground v.1.15,2013-09-09 16:35:00,
2013-09-09 11:40:00,90.6,70.0,29.96,West,261,1.0,5.0,51,0.00,,,0.00,Wunderground v.1.15,2013-09-09 16:40:00,
2013-09-09 11:46:00,90.7,71.2,29.95,SW,236,1.0,5.0,53,0.00,,,0.00,Wunderground v.1.15,2013-09-09 16:46:00,
2013-09-09 11:52:00,91.3,70.1,29.95,West,274,1.0,5.0,50,0.00,,,0.00,Wunderground v.1.15,2013-09-09 16:52:00,
2013-09-09 11:58:00,91.6,69.7,29.95,South,186,1.0,5.0,49,0.00,,,0.00,Wunderground v.1.15,2013-09-09 16:58:00,
2013-09-09 12:04:00,92.6,70.0,29.95,ESE,109,1.0,2.0,48,0.00,,,0.00,Wunderground v.1.15,2013-09-09 17:04:00,
2013-09-09 12:10:00,92.5,71.2,29.95,SW,236,1.0,1.0,50,0.00,,,0.00,Wunderground v.1.15,2013-09-09 17:10:00,
2013-09-09 12:16:00,92.6,71.2,29.95,SW,236,1.0,3.0,50,0.00,,,0.00,Wunderground v.1.15,2013-09-09 17:16:00,
2013-09-09 12:21:00,93.2,71.2,29.95,SSW,211,1.0,2.0,49,0.00,,,0.00,Wunderground v.1.15,2013-09-09 17:21:00,
2013-09-09 12:27:00,92.8,70.2,29.95,West,266,2.0,4.0,48,0.00,,,0.00,Wunderground v.1.15,2013-09-09 17:27:00,
2013-09-09 12:33:00,92.5,70.0,29.95,WSW,252,2.0,4.0,48,0.00,,,0.00,Wunderground v.1.15,2013-09-09 17:33:00,
2013-09-09 12:39:00,92.5,68.7,29.95,ESE,113,2.0,5.0,46,0.00,,,0.00,Wunderground v.1.15,2013-09-09 17:39:00,
2013-09-09 12:44:00,92.5,68.7,29.95,SW,226,3.0,4.0,46,0.00,,,0.00,Wunderground v.1.15,2013-09-09 17:44:00,
2013-09-09 12:50:00,92.2,69.1,29.95,NW,316,3.0,3.0,47,0.00,,,0.00,Wunderground v.1.15,2013-09-09 17:50:00,
2013-09-09 12:56:00,92.0,68.9,29.95,West,271,3.0,7.0,47,0.00,,,0.00,Wunderground v.1.15,2013-09-09 17:56:00,
2013-09-09 13:02:00,91.6,68.5,29.94,West,275,4.0,4.0,47,0.00,,,0.00,Wunderground v.1.15,2013-09-09 18:02:00,
2013-09-09 13:08:00,92.0,68.3,29.94,SW,218,3.0,4.0,46,0.00,,,0.00,Wunderground v.1.15,2013-09-09 18:08:00,
2013-09-09 13:14:00,92.9,69.7,29.94,West,267,2.0,4.0,47,0.00,,,0.00,Wunderground v.1.15,2013-09-09 18:14:00,
2013-09-09 13:20:00,93.6,68.4,29.94,WNW,290,2.0,5.0,44,0.00,,,0.00,Wunderground v.1.15,2013-09-09 18:20:00,
2013-09-09 13:25:00,93.3,68.1,29.94,SW,225,3.0,5.0,44,0.00,,,0.00,Wunderground v.1.15,2013-09-09 18:25:00,
2013-09-09 13:31:00,93.2,67.4,29.94,West,259,3.0,4.0,43,0.00,,,0.00,Wunderground v.1.15,2013-09-09 18:31:00,
2013-09-09 13:37:00,93.0,67.2,29.94,West,259,3.0,6.0,43,0.00,,,0.00,Wunderground v.1.15,2013-09-09 18:37:00,
2013-09-09 13:43:00,93.0,67.2,29.94,WNW,283,4.0,4.0,43,0.00,,,0.00,Wunderground v.1.15,2013-09-09 18:43:00,
2013-09-09 13:48:00,92.9,68.4,29.93,SW,218,4.0,5.0,45,0.00,,,0.00,Wunderground v.1.15,2013-09-09 18:48:00,
2013-09-09 13:54:00,93.1,68.6,29.93,SW,231,3.0,4.0,45,0.00,,,0.00,Wunderground v.1.15,2013-09-09 18:54:00,
2013-09-09 14:00:00,93.4,68.2,29.93,WNW,288,3.0,5.0,44,0.00,,,0.00,Wunderground v.1.15,2013-09-09 19:00:00,
2013-09-09 14:06:00,93.4,68.2,29.93,WNW,295,3.0,6.0,44,0.00,,,0.00,Wunderground v.1.15,2013-09-09 19:06:00,
2013-09-09 14:12:00,93.6,69.1,29.93,WSW,255,3.0,3.0,45,0.00,,,0.00,Wunderground v.1.15,2013-09-09 19:12:00,
2013-09-09 14:18:00,93.6,71.0,29.93,SW,221,3.0,9.0,48,0.00,,,0.00,Wunderground v.1.15,2013-09-09 19:18:00,
2013-09-09 14:24:00,94.2,68.9,29.92,West,267,3.0,4.0,44,0.00,,,0.00,Wunderground v.1.15,2013-09-09 19:24:00,
2013-09-09 14:29:00,93.7,69.2,29.92,NW,319,3.0,6.0,45,0.00,,,0.00,Wunderground v.1.15,2013-09-09 19:29:00,
2013-09-09 14:35:00,93.8,69.2,29.92,WSW,239,3.0,7.0,45,0.00,,,0.00,Wunderground v.1.15,2013-09-09 19:35:00,
2013-09-09 14:41:00,93.8,68.6,29.92,West,281,3.0,7.0,44,0.00,,,0.00,Wunderground v.1.15,2013-09-09 19:41:00,
2013-09-09 14:47:00,93.2,69.3,29.92,WNW,285,4.0,7.0,46,0.00,,,0.00,Wunderground v.1.15,2013-09-09 19:47:00,
2013-09-09 14:52:00,93.6,69.1,29.91,West,259,4.0,7.0,45,0.00,,,0.00,Wunderground v.1.15,2013-09-09 19:52:00,
2013-09-09 14:58:00,94.1,70.8,29.91,WSW,240,4.0,7.0,47,0.00,,,0.00,Wunderground v.1.15,2013-09-09 19:58:00,
2013-09-09 15:04:00,94.9,70.2,29.91,WNW,283,2.0,3.0,45,0.00,,,0.00,Wunderground v.1.15,2013-09-09 20:04:00,
2013-09-09 15:10:00,95.3,70.6,29.91,SW,225,2.0,2.0,45,0.00,,,0.00,Wunderground v.1.15,2013-09-09 20:10:00,
2013-09-09 15:16:00,95.7,67.5,29.90,WNW,302,2.0,4.0,40,0.00,,,0.00,Wunderground v.1.15,2013-09-09 20:16:00,
2013-09-09 15:22:00,95.8,67.6,29.90,WSW,245,2.0,2.0,40,0.00,,,0.00,Wunderground v.1.15,2013-09-09 20:22:00,
2013-09-09 15:28:00,96.4,67.4,29.90,SW,228,2.0,5.0,39,0.00,,,0.00,Wunderground v.1.15,2013-09-09 20:28:00,
2013-09-09 15:33:00,95.7,67.5,29.90,SSE,150,3.0,10.0,40,0.00,,,0.00,Wunderground v.1.15,2013-09-09 20:33:00,
2013-09-09 15:39:00,95.3,67.9,29.90,WSW,243,3.0,10.0,41,0.00,,,0.00,Wunderground v.1.15,2013-09-09 20:39:00,
2013-09-09 15:45:00,95.3,67.9,29.90,WSW,248,3.0,10.0,41,0.00,,,0.00,Wunderground v.1.15,2013-09-09 20:45:00,
2013-09-09 15:51:00,95.7,68.2,29.89,West,274,2.0,10.0,41,0.00,,,0.00,Wunderground v.1.15,2013-09-09 20:51:00,
2013-09-09 15:56:00,96.1,67.1,29.89,SE,129,2.0,10.0,39,0.00,,,0.00,Wunderground v.1.15,2013-09-09 20:56:00,
2013-09-09 16:02:00,96.4,66.7,29.89,ESE,122,3.0,3.0,38,0.00,,,0.00,Wunderground v.1.15,2013-09-09 21:02:00,
2013-09-09 16:08:00,96.5,66.0,29.89,SW,217,3.0,5.0,37,0.00,,,0.00,Wunderground v.1.15,2013-09-09 21:08:00,
2013-09-09 16:14:00,96.3,66.6,29.89,SSW,207,3.0,4.0,38,0.00,,,0.00,Wunderground v.1.15,2013-09-09 21:14:00,
2013-09-09 16:20:00,96.4,66.7,29.89,SW,236,2.0,3.0,38,0.00,,,0.00,Wunderground v.1.15,2013-09-09 21:20:00,
2013-09-09 16:26:00,96.2,67.2,29.89,West,273,2.0,5.0,39,0.00,,,0.00,Wunderground v.1.15,2013-09-09 21:26:00,
2013-09-09 16:32:00,96.1,66.4,29.89,SSW,208,2.0,8.0,38,0.00,,,0.00,Wunderground v.1.15,2013-09-09 21:32:00,
2013-09-09 16:37:00,96.3,65.0,29.89,SW,229,2.0,8.0,36,0.00,,,0.00,Wunderground v.1.15,2013-09-09 21:37:00,
2013-09-09 16:43:00,96.4,64.3,29.89,ESE,113,3.0,8.0,35,0.00,,,0.00,Wunderground v.1.15,2013-09-09 21:43:00,
2013-09-09 16:49:00,96.1,65.6,29.89,SW,232,3.0,8.0,37,0.00,,,0.00,Wunderground v.1.15,2013-09-09 21:49:00,
2013-09-09 16:55:00,96.2,65.7,29.88,WNW,302,2.0,8.0,37,0.00,,,0.00,Wunderground v.1.15,2013-09-09 21:55:00,
2013-09-09 17:00:00,96.4,64.3,29.89,SW,235,2.0,2.0,35,0.00,,,0.00,Wunderground v.1.15,2013-09-09 22:00:00,
2013-09-09 17:06:00,96.3,65.0,29.89,WSW,239,2.0,2.0,36,0.00,,,0.00,Wunderground v.1.15,2013-09-09 22:06:00,
2013-09-09 17:12:00,96.2,64.1,29.89,ESE,118,2.0,4.0,35,0.00,,,0.00,Wunderground v.1.15,2013-09-09 22:12:00,
2013-09-09 17:18:00,96.2,64.9,29.89,SW,231,2.0,4.0,36,0.00,,,0.00,Wunderground v.1.15,2013-09-09 22:18:00,
2013-09-09 17:24:00,96.3,65.8,29.89,SW,225,2.0,2.0,37,0.00,,,0.00,Wunderground v.1.15,2013-09-09 22:24:00,
2013-09-09 17:30:00,95.9,66.2,29.88,WSW,246,2.0,2.0,38,0.00,,,0.00,Wunderground v.1.15,2013-09-09 22:30:00,
2013-09-09 17:36:00,95.8,66.1,29.88,WSW,257,2.0,8.0,38,0.00,,,0.00,Wunderground v.1.15,2013-09-09 22:36:00,
2013-09-09 17:41:00,95.7,66.8,29.88,SW,219,2.0,8.0,39,0.00,,,0.00,Wunderground v.1.15,2013-09-09 22:41:00,
2013-09-09 17:47:00,95.6,67.4,29.88,SW,232,2.0,8.0,40,0.00,,,0.00,Wunderground v.1.15,2013-09-09 22:47:00,
2013-09-09 17:53:00,95.0,66.2,29.89,SW,228,1.0,8.0,39,0.00,,,0.00,Wunderground v.1.15,2013-09-09 22:53:00,
2013-09-09 17:59:00,94.7,65.1,29.89,SW,226,1.0,8.0,38,0.00,,,0.00,Wunderground v.1.15,2013-09-09 22:59:00,
2013-09-09 18:05:00,94.3,65.5,29.88,West,274,2.0,3.0,39,0.00,,,0.00,Wunderground v.1.15,2013-09-09 23:05:00,
2013-09-09 18:11:00,93.9,65.9,29.89,WSW,239,2.0,2.0,40,0.00,,,0.00,Wunderground v.1.15,2013-09-09 23:11:00,
2013-09-09 18:17:00,93.5,66.3,29.88,West,264,2.0,2.0,41,0.00,,,0.00,Wunderground v.1.15,2013-09-09 23:17:00,
2013-09-09 18:23:00,93.2,66.0,29.89,SW,232,1.0,1.0,41,0.00,,,0.00,Wunderground v.1.15,2013-09-09 23:23:00,
2013-09-09 18:28:00,92.7,66.2,29.89,SW,227,1.0,1.0,42,0.00,,,0.00,Wunderground v.1.15,2013-09-09 23:28:00,
2013-09-09 18:34:00,92.2,67.1,29.89,SW,228,0.0,0.0,44,0.00,,,0.00,Wunderground v.1.15,2013-09-09 23:34:00,
2013-09-09 18:40:00,91.6,66.6,29.89,SW,221,0.0,0.0,44,0.00,,,0.00,Wunderground v.1.15,2013-09-09 23:40:00,
2013-09-09 18:46:00,90.9,67.9,29.89,SW,221,0.0,1.0,47,0.00,,,0.00,Wunderground v.1.15,2013-09-09 23:46:00,
2013-09-09 18:51:00,90.4,66.8,29.88,SW,221,0.0,0.0,46,0.00,,,0.00,Wunderground v.1.15,2013-09-09 23:51:00,
2013-09-09 18:57:00,89.7,66.8,29.88,SW,221,0.0,0.0,47,0.00,,,0.00,Wunderground v.1.15,2013-09-09 23:57:00,
2013-09-09 19:03:00,89.1,67.5,29.88,SW,215,0.0,0.0,49,0.00,,,0.00,Wunderground v.1.15,2013-09-10 00:03:00,
2013-09-09 19:09:00,88.4,68.5,29.88,SW,215,0.0,0.0,52,0.00,,,0.00,Wunderground v.1.15,2013-09-10 00:09:00,
2013-09-09 19:15:00,87.4,68.2,29.88,SW,215,0.0,0.0,53,0.00,,,0.00,Wunderground v.1.15,2013-09-10 00:15:00,
2013-09-09 19:21:00,86.3,68.8,29.88,SW,215,0.0,0.0,56,0.00,,,0.00,Wunderground v.1.15,2013-09-10 00:21:00,
2013-09-09 19:27:00,85.3,68.8,29.88,SW,215,0.0,0.0,58,0.00,,,0.00,Wunderground v.1.15,2013-09-10 00:27:00,
2013-09-09 19:32:00,84.2,68.8,29.88,SW,215,0.0,5.0,60,0.00,,,0.00,Wunderground v.1.15,2013-09-10 00:32:00,
2013-09-09 19:38:00,83.4,67.6,29.89,SW,215,0.0,5.0,59,0.00,,,0.00,Wunderground v.1.15,2013-09-10 00:38:00,
2013-09-09 19:44:00,82.5,67.7,29.89,SW,215,0.0,5.0,61,0.00,,,0.00,Wunderground v.1.15,2013-09-10 00:44:00,
2013-09-09 19:50:00,81.7,68.3,29.89,SW,215,0.0,5.0,64,0.00,,,0.00,Wunderground v.1.15,2013-09-10 00:50:00,
2013-09-09 19:55:00,81.1,68.7,29.89,SW,214,0.0,5.0,66,0.00,,,0.00,Wunderground v.1.15,2013-09-10 00:55:00,
2013-09-09 20:00:00,80.4,68.4,29.89,SW,215,0.0,0.0,67,0.00,,,0.00,Wunderground v.1.15,2013-09-10 01:00:00,
2013-09-09 20:06:00,79.6,68.5,29.89,SW,215,0.0,0.0,69,0.00,,,0.00,Wunderground v.1.15,2013-09-10 01:06:00,
2013-09-09 20:12:00,79.2,69.0,29.89,SW,215,0.0,0.0,71,0.00,,,0.00,Wunderground v.1.15,2013-09-10 01:12:00,
2013-09-09 20:17:00,78.9,69.5,29.89,SW,215,0.0,0.0,73,0.00,,,0.00,Wunderground v.1.15,2013-09-10 01:17:00,
2013-09-09 20:23:00,78.5,69.1,29.89,SW,215,0.0,0.0,73,0.00,,,0.00,Wunderground v.1.15,2013-09-10 01:23:00,
2013-09-09 20:29:00,77.9,68.9,29.90,SW,214,0.0,0.0,74,0.00,,,0.00,Wunderground v.1.15,2013-09-10 01:29:00,
2013-09-09 20:34:00,77.7,68.7,29.90,SW,215,0.0,1.0,74,0.00,,,0.00,Wunderground v.1.15,2013-09-10 01:34:00,
2013-09-09 20:40:00,77.7,68.7,29.90,SW,215,0.0,1.0,74,0.00,,,0.00,Wunderground v.1.15,2013-09-10 01:40:00,
2013-09-09 20:46:00,77.5,68.9,29.90,SW,215,0.0,1.0,75,0.00,,,0.00,Wunderground v.1.15,2013-09-10 01:46:00,
2013-09-09 20:52:00,77.2,68.7,29.91,SW,214,0.0,1.0,75,0.00,,,0.00,Wunderground v.1.15,2013-09-10 01:52:00,
2013-09-09 20:57:00,76.9,68.8,29.91,SW,215,0.0,1.0,76,0.00,,,0.00,Wunderground v.1.15,2013-09-10 01:57:00,
2013-09-09 21:03:00,76.6,68.8,29.91,SW,217,0.0,0.0,77,0.00,,,0.00,Wunderground v.1.15,2013-09-10 02:03:00,
2013-09-09 21:09:00,76.4,69.0,29.91,SW,217,0.0,0.0,78,0.00,,,0.00,Wunderground v.1.15,2013-09-10 02:09:00,
2013-09-09 21:15:00,76.2,68.8,29.91,SW,217,0.0,0.0,78,0.00,,,0.00,Wunderground v.1.15,2013-09-10 02:15:00,
2013-09-09 21:20:00,75.8,68.8,29.91,SW,217,0.0,0.0,79,0.00,,,0.00,Wunderground v.1.15,2013-09-10 02:20:00,
2013-09-09 21:26:00,75.4,68.8,29.92,SW,217,0.0,0.0,80,0.00,,,0.00,Wunderground v.1.15,2013-09-10 02:26:00,
2013-09-09 21:32:00,75.0,68.8,29.92,SW,217,0.0,0.0,81,0.00,,,0.00,Wunderground v.1.15,2013-09-10 02:32:00,
2013-09-09 21:38:00,74.8,68.6,29.92,SW,217,0.0,0.0,81,0.00,,,0.00,Wunderground v.1.15,2013-09-10 02:38:00,
2013-09-09 21:44:00,74.6,69.1,29.92,SW,217,0.0,0.0,83,0.00,,,0.00,Wunderground v.1.15,2013-09-10 02:44:00,
2013-09-09 21:50:00,74.4,69.2,29.92,SW,217,0.0,0.0,84,0.00,,,0.00,Wunderground v.1.15,2013-09-10 02:50:00,
2013-09-09 21:56:00,74.1,69.3,29.93,SW,217,0.0,0.0,85,0.00,,,0.00,Wunderground v.1.15,2013-09-10 02:56:00,
2013-09-09 22:01:00,73.9,69.1,29.93,SW,217,0.0,0.0,85,0.00,,,0.00,Wunderground v.1.15,2013-09-10 03:01:00,
2013-09-09 22:07:00,73.7,69.2,29.93,SW,217,0.0,1.0,86,0.00,,,0.00,Wunderground v.1.15,2013-09-10 03:07:00,
2013-09-09 22:13:00,73.6,69.2,29.93,SW,222,0.0,0.0,86,0.00,,,0.00,Wunderground v.1.15,2013-09-10 03:13:00,
2013-09-09 22:19:00,73.4,69.0,29.93,West,264,0.0,1.0,86,0.00,,,0.00,Wunderground v.1.15,2013-09-10 03:19:00,
2013-09-09 22:24:00,73.2,68.8,29.93,West,264,0.0,0.0,86,0.00,,,0.00,Wunderground v.1.15,2013-09-10 03:24:00,
2013-09-09 22:30:00,73.0,68.6,29.93,West,264,0.0,0.0,86,0.00,,,0.00,Wunderground v.1.15,2013-09-10 03:30:00,
2013-09-09 22:36:00,72.8,68.7,29.94,West,264,0.0,0.0,87,0.00,,,0.00,Wunderground v.1.15,2013-09-10 03:36:00,
2013-09-09 22:42:00,72.6,68.5,29.94,West,264,0.0,0.0,87,0.00,,,0.00,Wunderground v.1.15,2013-09-10 03:42:00,
2013-09-09 22:48:00,72.4,68.3,29.94,West,264,0.0,0.0,87,0.00,,,0.00,Wunderground v.1.15,2013-09-10 03:48:00,
2013-09-09 22:54:00,72.4,68.6,29.94,West,259,0.0,0.0,88,0.00,,,0.00,Wunderground v.1.15,2013-09-10 03:54:00,
2013-09-09 23:00:00,72.1,68.3,29.94,West,259,0.0,0.0,88,0.00,,,0.00,Wunderground v.1.15,2013-09-10 04:00:00,
2013-09-09 23:01:00,72.0,68.2,29.94,West,259,0.0,0.0,88,0.00,,,0.00,Wunderground v.1.15,2013-09-10 04:01:00,
2013-09-09 23:02:00,72.0,68.2,29.94,West,259,0.0,0.0,88,0.00,,,0.00,Wunderground v.1.15,2013-09-10 04:02:00,
2013-09-09 23:03:00,72.0,68.2,29.94,West,259,0.0,0.0,88,0.00,,,0.00,Wunderground v.1.15,2013-09-10 04:03:00,
2013-09-09 23:04:00,71.9,68.2,29.94,West,259,0.0,0.0,88,0.00,,,0.00,Wunderground v.1.15,2013-09-10 04:04:00,
2013-09-09 23:08:00,71.7,68.0,29.94,West,259,0.0,0.0,88,0.00,,,0.00,Wunderground v.1.15,2013-09-10 04:08:00,
2013-09-09 23:14:00,71.5,67.8,29.95,West,259,0.0,0.0,88,0.00,,,0.00,Wunderground v.1.15,2013-09-10 04:14:00,
2013-09-09 23:20:00,71.3,67.6,29.95,West,259,0.0,0.0,88,0.00,,,0.00,Wunderground v.1.15,2013-09-10 04:20:00,
2013-09-09 23:25:00,71.1,67.4,29.95,West,259,0.0,0.0,88,0.00,,,0.00,Wunderground v.1.15,2013-09-10 04:25:00,
2013-09-09 23:31:00,70.9,67.2,29.95,West,259,0.0,1.0,88,0.00,,,0.00,Wunderground v.1.15,2013-09-10 04:31:00,
2013-09-09 23:33:00,70.9,67.5,29.95,West,259,0.0,1.0,89,0.00,,,0.00,Wunderground v.1.15,2013-09-10 04:33:00,
2013-09-09 23:39:00,70.8,67.4,29.95,West,259,0.0,1.0,89,0.00,,,0.00,Wunderground v.1.15,2013-09-10 04:39:00,
2013-09-09 23:45:00,70.6,67.2,29.95,WSW,258,0.0,1.0,89,0.00,,,0.00,Wunderground v.1.15,2013-09-10 04:45:00,
2013-09-09 23:50:00,70.5,67.4,29.95,West,259,0.0,1.0,90,0.00,,,0.00,Wunderground v.1.15,2013-09-10 04:50:00,
2013-09-09 23:56:00,70.3,67.2,29.95,West,259,0.0,1.0,90,0.00,,,0.00,Wunderground v.1.15,2013-09-10 04:56:00,